Terminal Aerodrome Forecast
Issued by NWS Sioux Falls, SD

Home | Current Version | Previous Version | Text Only | Print | Product List | Glossary On
Versions: 1 2 3 4 5 6 7 8 9 10 11 12 13
000
FTUS43 KFSD 012322
TAFHON
TAF
KHON 012322Z 0200/0224 24012KT P6SM SCT100 SCT250
     FM020200 21007KT P6SM SCT200
     FM021100 27007KT P6SM SKC
     FM021400 34013G19KT P6SM SKC=

USA.gov is the U.S. government's official web portal to all federal, state and local government web resources and services.